If you wish to contribute or participate in the discussions about articles you are invited to join SKYbrary as a registered user

 Actions

Jam Airport

From SKYbrary Wiki

OIBJ
Airport
ICAO: OIBJ – IATA: KNR
Summary
Name Jam Airport
Region Middle East
Territory Iran IR.gif
Location Jam, Bushehr Province
Serving Bandar Siraf and Kangan
Elevation 659.587 m
2,164 ft659.587 m
Coordinates 27° 48' 53.10" N, 52° 21' 29.70" E
Runways
Designator Length Width Surface ROPS
11/29 2350 m7,709.974 ft
45 m147.638 ft
ASP /


METAR
Observation OIBJ 111000Z 21010KT 7000 NSC 27/13 Q1015
Station JAM AIRPORT
Date/Time 11 April 2019 10:00:00
Wind direction 210°
Wind speed 10 kts
Lowest cloud amount nil significant cloud
Temperature 27°C
Dew point 13°C
Humidity 42%
QNH 1015 hPa
Weather condition n/a

Airport serving the communities in Kangan county, Bushehr province, Iran.

Climatology

Warm Desert climate (Köppen climate classification BWh).

Maps

Terrain

Loading map...

Airport Layout

Loading map...


Accidents & Serious Incidents at or in vicinity of OIBJ

None on SKYbrary